createdAt,value
2019-03-12T00:00:56.725Z,2.85
2019-03-12T00:02:06.875Z,2.82
2019-03-12T00:03:17.031Z,2.84
2019-03-12T00:04:27.138Z,2.81
2019-03-12T00:05:37.027Z,2.84
2019-03-12T00:06:47.133Z,2.88
2019-03-12T00:07:57.250Z,2.87
2019-03-12T00:09:07.344Z,2.88
2019-03-12T00:10:17.582Z,2.79
2019-03-12T00:11:27.327Z,2.78
2019-03-12T00:12:37.446Z,2.78
2019-03-12T00:13:47.551Z,2.77
2019-03-12T00:14:57.665Z,2.73
2019-03-12T00:16:07.763Z,2.77
2019-03-12T00:17:17.912Z,2.81
2019-03-12T00:18:30.974Z,2.74
2019-03-12T00:19:40.734Z,2.73
2019-03-12T00:20:50.875Z,2.73
2019-03-12T00:22:00.983Z,2.78
2019-03-12T00:23:11.101Z,2.7
2019-03-12T00:24:21.230Z,2.7
2019-03-12T00:25:31.342Z,2.71
2019-03-12T00:26:41.452Z,2.66
2019-03-12T00:27:51.552Z,2.63
2019-03-12T00:29:01.666Z,2.62
2019-03-12T00:30:11.761Z,2.62
2019-03-12T00:31:21.947Z,2.63
2019-03-12T00:32:32.088Z,2.56
2019-03-12T00:33:42.206Z,2.53
2019-03-12T00:34:52.415Z,2.6
2019-03-12T00:36:02.545Z,2.62
2019-03-12T00:37:12.667Z,2.51
2019-03-12T00:38:22.879Z,2.56
2019-03-12T00:39:32.996Z,2.49
2019-03-12T00:40:43.110Z,2.48
2019-03-12T00:41:52.967Z,2.45
2019-03-12T00:43:03.071Z,2.62
2019-03-12T00:44:13.175Z,2.52
2019-03-12T00:45:23.280Z,2.56
2019-03-12T00:46:33.465Z,2.53
2019-03-12T00:47:43.322Z,2.53
2019-03-12T00:48:53.420Z,2.52
2019-03-12T00:50:03.529Z,2.53
2019-03-12T00:51:13.721Z,2.56
2019-03-12T00:52:23.846Z,2.6
2019-03-12T00:53:33.944Z,2.51
2019-03-12T00:54:44.040Z,2.59
2019-03-12T00:55:54.136Z,2.51
2019-03-12T00:57:04.236Z,2.6
2019-03-12T00:58:14.098Z,2.63
2019-03-12T00:59:24.276Z,2.63
2019-03-12T01:00:34.383Z,2.56
2019-03-12T01:01:44.479Z,2.52
2019-03-12T01:02:54.581Z,2.56
2019-03-12T01:04:04.681Z,2.52
2019-03-12T01:05:14.809Z,2.55
2019-03-12T01:06:24.921Z,2.53
2019-03-12T01:07:35.042Z,2.51
2019-03-12T01:08:44.903Z,2.56
2019-03-12T01:09:54.997Z,2.56
2019-03-12T01:11:05.151Z,2.56
2019-03-12T01:12:15.252Z,2.49
2019-03-12T01:13:25.351Z,2.51
2019-03-12T01:14:35.450Z,2.59
2019-03-12T01:15:45.554Z,2.51
2019-03-12T01:16:55.661Z,2.62
2019-03-12T01:18:05.761Z,2.53
2019-03-12T01:19:19.153Z,2.62
2019-03-12T01:20:29.285Z,2.59
2019-03-12T01:21:39.387Z,2.67
2019-03-12T01:22:49.504Z,2.63
2019-03-12T01:23:59.840Z,2.67
2019-03-12T01:25:10.043Z,2.69
2019-03-12T01:26:20.153Z,2.7
2019-03-12T01:27:30.258Z,2.73
2019-03-12T01:28:40.370Z,2.71
2019-03-12T01:29:50.479Z,2.73
2019-03-12T01:31:00.657Z,2.78
2019-03-12T01:32:10.761Z,2.74
2019-03-12T01:33:20.887Z,2.78
2019-03-12T01:34:30.730Z,2.81
2019-03-12T01:35:40.840Z,2.88
2019-03-12T01:36:50.943Z,2.88
2019-03-12T01:38:01.034Z,2.88
2019-03-12T01:39:11.216Z,2.85
2019-03-12T01:40:21.342Z,2.87
2019-03-12T01:41:31.441Z,2.89
2019-03-12T01:42:41.276Z,2.91
2019-03-12T01:43:51.396Z,2.89
2019-03-12T01:45:01.239Z,2.84
2019-03-12T01:46:11.348Z,2.88
2019-03-12T01:47:21.491Z,2.81
2019-03-12T01:48:31.585Z,2.79
2019-03-12T01:49:41.705Z,2.71
2019-03-12T01:50:51.799Z,2.79
2019-03-12T01:52:01.966Z,2.74
2019-03-12T01:53:12.068Z,2.67
2019-03-12T01:54:22.162Z,2.67
2019-03-12T01:55:32.289Z,2.63
2019-03-12T01:56:42.389Z,2.64
2019-03-12T01:57:52.485Z,2.63
2019-03-12T01:59:02.611Z,2.6
2019-03-12T02:00:12.703Z,2.59
2019-03-12T02:01:22.829Z,2.56
2019-03-12T02:02:32.929Z,2.56
2019-03-12T02:03:43.043Z,2.52
2019-03-12T02:04:53.146Z,2.53
2019-03-12T02:06:02.988Z,2.62
2019-03-12T02:07:12.844Z,2.62
2019-03-12T02:08:22.972Z,2.55
2019-03-12T02:09:33.082Z,2.53
2019-03-12T02:10:43.187Z,2.55
2019-03-12T02:11:53.279Z,2.52
2019-03-12T02:13:03.396Z,2.59
2019-03-12T02:14:13.726Z,2.46
2019-03-12T02:15:23.821Z,2.51
2019-03-12T02:16:37.321Z,2.45
2019-03-12T02:17:47.436Z,2.44
2019-03-12T02:18:57.553Z,2.41
2019-03-12T02:20:07.664Z,2.41
2019-03-12T02:21:17.400Z,2.33
2019-03-12T02:22:27.494Z,2.44
2019-03-12T02:23:37.602Z,2.42
2019-03-12T02:24:57.272Z,2.45
2019-03-12T02:26:07.370Z,2.45
2019-03-12T02:27:17.463Z,2.39
2019-03-12T02:28:27.553Z,2.34
2019-03-12T02:29:37.653Z,2.39
2019-03-12T02:30:47.754Z,2.3
2019-03-12T02:31:57.909Z,2.46
2019-03-12T02:33:08.025Z,2.33
2019-03-12T02:34:18.184Z,2.44
2019-03-12T02:35:28.288Z,2.34
2019-03-12T02:36:38.418Z,2.37
2019-03-12T02:37:48.540Z,2.37
2019-03-12T02:38:58.828Z,2.42
2019-03-12T02:40:09.029Z,2.31
2019-03-12T02:41:18.782Z,2.39
2019-03-12T02:42:28.886Z,2.42
2019-03-12T02:43:38.756Z,2.31
2019-03-12T02:44:48.867Z,2.33
2019-03-12T02:45:58.973Z,2.3
2019-03-12T02:47:09.086Z,2.33
2019-03-12T02:48:19.198Z,2.34
2019-03-12T02:49:29.323Z,2.44
2019-03-12T02:50:39.462Z,2.48
2019-03-12T02:51:49.678Z,2.3
2019-03-12T02:52:59.836Z,2.45
2019-03-12T02:54:09.938Z,2.36
2019-03-12T02:55:20.055Z,2.31
2019-03-12T02:56:30.156Z,2.44
2019-03-12T02:57:40.279Z,2.39
2019-03-12T02:58:50.398Z,2.39
2019-03-12T03:00:00.630Z,2.33
2019-03-12T03:01:10.780Z,2.31
2019-03-12T03:02:20.907Z,2.36
2019-03-12T03:03:31.188Z,2.34
2019-03-12T03:04:41.296Z,2.31
2019-03-12T03:05:51.048Z,2.31
2019-03-12T03:07:00.805Z,2.36
2019-03-12T03:08:10.686Z,2.31
2019-03-12T03:09:20.811Z,2.31
2019-03-12T03:10:30.931Z,2.33
2019-03-12T03:11:41.062Z,2.31
2019-03-12T03:12:51.197Z,2.37
2019-03-12T03:14:01.318Z,2.36
2019-03-12T03:15:11.426Z,2.44
2019-03-12T03:16:24.042Z,2.44
2019-03-12T03:17:34.129Z,2.44
2019-03-12T03:18:44.234Z,2.49
2019-03-12T03:19:54.344Z,2.48
2019-03-12T03:21:04.476Z,2.52
2019-03-12T03:22:14.662Z,2.52
2019-03-12T03:23:24.804Z,2.55
2019-03-12T03:24:34.938Z,2.56
2019-03-12T03:25:45.102Z,2.59
2019-03-12T03:26:55.206Z,2.63
2019-03-12T03:28:05.324Z,2.67
2019-03-12T03:29:15.467Z,2.66
2019-03-12T03:30:25.622Z,2.7
2019-03-12T03:31:35.816Z,2.77
2019-03-12T03:32:46.091Z,2.74
2019-03-12T03:33:56.311Z,2.77
2019-03-12T03:35:06.472Z,2.79
2019-03-12T03:36:16.590Z,2.87
2019-03-12T03:37:26.693Z,2.91
2019-03-12T03:38:36.797Z,2.87
2019-03-12T03:39:46.931Z,2.84
2019-03-12T03:40:56.799Z,2.92
2019-03-12T03:42:06.928Z,2.97
2019-03-12T03:43:17.075Z,2.91
2019-03-12T03:44:27.351Z,2.89
2019-03-12T03:45:37.668Z,2.94
2019-03-12T03:46:47.807Z,3.06
2019-03-12T03:47:57.923Z,3
2019-03-12T03:49:08.171Z,2.94
2019-03-12T03:50:18.437Z,2.99
2019-03-12T03:51:28.591Z,2.96
2019-03-12T03:52:38.714Z,3.06
2019-03-12T03:53:48.831Z,2.91
2019-03-12T03:54:58.961Z,2.94
2019-03-12T03:56:09.087Z,3.06
2019-03-12T03:57:19.020Z,3.02
2019-03-12T03:58:29.131Z,3.08
2019-03-12T03:59:39.269Z,3.08
2019-03-12T04:00:49.393Z,2.96
2019-03-12T04:01:59.240Z,3.1
2019-03-12T04:03:09.357Z,3.1
2019-03-12T04:04:19.629Z,3.08
2019-03-12T04:05:29.386Z,3.08
2019-03-12T04:06:39.887Z,3.06
2019-03-12T04:07:50.055Z,3.1
2019-03-12T04:09:00.181Z,3.06
2019-03-12T04:10:10.438Z,3.13
2019-03-12T04:11:20.566Z,3.13
2019-03-12T04:12:30.717Z,3.13
2019-03-12T04:13:40.867Z,3.1
2019-03-12T04:14:51.000Z,3.19
2019-03-12T04:16:01.117Z,3.19
2019-03-12T04:17:11.283Z,3.25
2019-03-12T04:18:21.406Z,3.11
2019-03-12T04:19:31.594Z,3.16
2019-03-12T04:20:41.729Z,3.22
2019-03-12T04:21:51.839Z,3.19
2019-03-12T04:23:02.199Z,3.18
2019-03-12T04:24:12.309Z,3.25
2019-03-12T04:25:22.587Z,3.21
2019-03-12T04:26:32.707Z,3.18
2019-03-12T04:27:42.842Z,3.18
2019-03-12T04:28:52.958Z,3.25
2019-03-12T04:30:03.087Z,3.22
2019-03-12T04:31:13.212Z,3.15
2019-03-12T04:32:23.320Z,3.07
2019-03-12T04:33:33.434Z,3.02
2019-03-12T04:34:43.299Z,3.06
2019-03-12T04:35:53.465Z,2.85
2019-03-12T04:37:03.333Z,3
2019-03-12T04:38:13.422Z,2.89
2019-03-12T04:39:23.780Z,2.88
2019-03-12T04:40:33.990Z,2.81
2019-03-12T04:41:44.106Z,2.88
2019-03-12T04:42:54.204Z,2.84
2019-03-12T04:44:04.060Z,2.84
2019-03-12T04:45:13.906Z,2.85
2019-03-12T04:46:24.124Z,2.85
2019-03-12T04:47:34.255Z,2.73
2019-03-12T04:48:44.353Z,2.81
2019-03-12T04:49:54.208Z,2.85
2019-03-12T04:51:04.403Z,2.78
2019-03-12T04:52:14.527Z,2.82
2019-03-12T04:53:24.641Z,2.79
2019-03-12T04:54:34.756Z,2.82
2019-03-12T04:55:44.856Z,2.82
2019-03-12T04:56:54.707Z,2.87
2019-03-12T04:58:05.027Z,2.79
2019-03-12T04:59:15.123Z,2.77
2019-03-12T05:00:25.254Z,2.82
2019-03-12T05:01:35.371Z,2.89
2019-03-12T05:02:45.511Z,2.79
2019-03-12T05:03:55.709Z,2.79
2019-03-12T05:05:05.823Z,2.73
2019-03-12T05:06:19.387Z,2.71
2019-03-12T05:07:29.769Z,2.71
2019-03-12T05:08:40.085Z,2.7
2019-03-12T05:09:50.018Z,2.7
2019-03-12T05:11:00.262Z,2.66
2019-03-12T05:12:10.378Z,2.66
2019-03-12T05:13:20.485Z,2.64
2019-03-12T05:14:30.595Z,2.69
2019-03-12T05:15:40.715Z,2.59
2019-03-12T05:16:50.808Z,2.53
2019-03-12T05:18:00.918Z,2.56
2019-03-12T05:19:11.016Z,2.52
2019-03-12T05:20:20.874Z,2.66
2019-03-12T05:21:31.020Z,2.6
2019-03-12T05:22:41.134Z,2.56
2019-03-12T05:23:51.265Z,2.56
2019-03-12T05:25:01.380Z,2.66
2019-03-12T05:26:11.228Z,2.55
2019-03-12T05:27:22.459Z,2.62
2019-03-12T05:28:34.851Z,2.53
2019-03-12T05:29:44.958Z,2.6
2019-03-12T05:30:55.182Z,2.52
2019-03-12T05:32:05.294Z,2.59
2019-03-12T05:33:15.397Z,2.69
2019-03-12T05:34:28.194Z,2.66
2019-03-12T05:35:38.390Z,2.74
2019-03-12T05:36:48.657Z,2.71
2019-03-12T05:37:58.751Z,2.71
2019-03-12T05:39:08.601Z,2.74
2019-03-12T05:40:18.725Z,2.69
2019-03-12T05:41:28.863Z,2.77
2019-03-12T05:42:38.960Z,2.7
2019-03-12T05:43:49.067Z,2.77
2019-03-12T05:44:59.202Z,2.74
2019-03-12T05:46:09.330Z,2.78
2019-03-12T05:47:19.459Z,2.87
2019-03-12T05:48:29.572Z,2.91
2019-03-12T05:49:39.693Z,2.84
2019-03-12T05:50:49.827Z,2.84
2019-03-12T05:51:59.926Z,2.91
2019-03-12T05:53:10.029Z,2.96
2019-03-12T05:54:20.229Z,2.85
2019-03-12T05:55:30.337Z,2.94
2019-03-12T05:56:40.439Z,2.94
2019-03-12T05:57:50.550Z,2.82
2019-03-12T05:59:00.654Z,2.94
2019-03-12T06:00:10.769Z,2.96
2019-03-12T06:01:20.902Z,2.91
2019-03-12T06:02:31.031Z,2.94
2019-03-12T06:03:41.167Z,2.92
2019-03-12T06:04:51.266Z,2.92
2019-03-12T06:06:01.387Z,2.94
2019-03-12T06:07:11.500Z,2.88
2019-03-12T06:08:21.625Z,2.85
2019-03-12T06:09:35.465Z,2.91
2019-03-12T06:10:45.605Z,2.89
2019-03-12T06:11:55.707Z,2.89
2019-03-12T06:13:05.829Z,2.99
2019-03-12T06:14:15.585Z,2.85
2019-03-12T06:15:25.447Z,2.88
2019-03-12T06:16:35.559Z,2.92
2019-03-12T06:17:45.681Z,2.97
2019-03-12T06:18:55.819Z,2.92
2019-03-12T06:20:05.953Z,2.97
2019-03-12T06:21:16.080Z,2.97
2019-03-12T06:22:26.242Z,3.07
2019-03-12T06:23:36.115Z,2.96
2019-03-12T06:24:46.302Z,2.91
2019-03-12T06:25:56.402Z,2.92
2019-03-12T06:27:06.502Z,2.87
2019-03-12T06:28:16.633Z,2.88
2019-03-12T06:29:26.758Z,2.88
2019-03-12T06:30:36.874Z,2.87
2019-03-12T06:31:47.017Z,2.91
2019-03-12T06:32:57.157Z,2.88
2019-03-12T06:34:07.382Z,2.96
2019-03-12T06:35:17.477Z,2.92
2019-03-12T06:36:27.347Z,2.92
2019-03-12T06:37:37.456Z,3.02
2019-03-12T06:38:47.555Z,2.94
2019-03-12T06:39:57.668Z,3.08
2019-03-12T06:41:07.778Z,2.94
2019-03-12T06:42:17.901Z,2.92
2019-03-12T06:43:28.093Z,3.06
2019-03-12T06:44:38.201Z,3.06
2019-03-12T06:45:48.323Z,2.99
2019-03-12T06:46:58.417Z,3.07
2019-03-12T06:48:08.535Z,3.02
2019-03-12T06:49:18.634Z,3.04
2019-03-12T06:50:28.757Z,3.04
2019-03-12T06:51:38.925Z,2.92
2019-03-12T06:52:49.023Z,2.89
2019-03-12T06:53:58.870Z,2.87
2019-03-12T06:55:08.983Z,2.87
2019-03-12T06:56:19.105Z,2.79
2019-03-12T06:57:29.220Z,2.78
2019-03-12T06:58:39.328Z,2.85
2019-03-12T06:59:49.538Z,2.82
2019-03-12T07:00:59.642Z,2.87
2019-03-12T07:02:09.973Z,2.85
2019-03-12T07:03:20.078Z,2.88
2019-03-12T07:04:30.204Z,2.89
2019-03-12T07:05:40.319Z,2.84
2019-03-12T07:06:50.431Z,2.99
2019-03-12T07:08:00.543Z,2.92
2019-03-12T07:09:14.029Z,2.92
2019-03-12T07:10:24.138Z,3.02
2019-03-12T07:11:34.127Z,3
2019-03-12T07:12:44.066Z,3.07
2019-03-12T07:13:54.204Z,3.04
2019-03-12T07:15:04.320Z,3.24
2019-03-12T07:16:14.645Z,3.21
2019-03-12T07:17:24.748Z,3.32
2019-03-12T07:18:34.865Z,3.36
2019-03-12T07:19:44.969Z,3.34
2019-03-12T07:20:55.087Z,3.68
2019-03-12T07:22:05.209Z,3.58
2019-03-12T07:23:15.318Z,3.67
2019-03-12T07:24:25.454Z,3.75
2019-03-12T07:25:35.397Z,3.85
2019-03-12T07:26:45.498Z,3.93
2019-03-12T07:27:55.633Z,3.94
2019-03-12T07:29:05.506Z,3.95
2019-03-12T07:30:17.978Z,4.03
2019-03-12T07:31:28.477Z,3.98
2019-03-12T07:32:38.476Z,4.09
2019-03-12T07:33:48.242Z,4.13
2019-03-12T07:34:57.997Z,4.2
2019-03-12T07:36:08.115Z,4.4
2019-03-12T07:37:18.415Z,4.3
2019-03-12T07:38:28.553Z,4.46
2019-03-12T07:39:38.678Z,4.36
2019-03-12T07:40:48.786Z,4.55
2019-03-12T07:41:58.935Z,4.62
2019-03-12T07:43:09.037Z,4.86
2019-03-12T07:44:19.146Z,5.14
2019-03-12T07:45:29.271Z,5.31
2019-03-12T07:46:39.366Z,5.65
2019-03-12T07:47:49.227Z,5.98
2019-03-12T07:48:59.336Z,6.42
2019-03-12T07:50:09.445Z,6.81
2019-03-12T07:51:19.312Z,7.26
2019-03-12T07:52:29.427Z,7.61
2019-03-12T07:53:39.563Z,7.92
2019-03-12T07:54:49.669Z,8.4
2019-03-12T07:55:59.778Z,8.74
2019-03-12T07:57:09.896Z,9
2019-03-12T07:58:19.773Z,9.27
2019-03-12T07:59:43.006Z,9.78
2019-03-12T08:00:53.126Z,10.27
2019-03-12T08:02:03.358Z,10.34
2019-03-12T08:03:13.465Z,10.19
2019-03-12T08:04:23.592Z,9.95
2019-03-12T08:05:33.713Z,9.85
2019-03-12T08:06:43.828Z,9.58
2019-03-12T08:07:53.958Z,9.56
2019-03-12T08:09:04.108Z,9.4
2019-03-12T08:10:14.239Z,9.4
2019-03-12T08:11:24.437Z,9.35
2019-03-12T08:12:36.870Z,9.27
2019-03-12T08:13:47.097Z,9.12
2019-03-12T08:14:57.216Z,8.98
2019-03-12T08:16:07.313Z,8.79
2019-03-12T08:17:17.162Z,8.82
2019-03-12T08:18:27.312Z,8.74
2019-03-12T08:19:37.167Z,8.84
2019-03-12T08:20:47.284Z,8.74
2019-03-12T08:21:57.533Z,8.7
2019-03-12T08:23:07.714Z,8.77
2019-03-12T08:24:18.828Z,8.95
2019-03-12T08:25:28.953Z,8.92
2019-03-12T08:26:38.700Z,8.75
2019-03-12T08:27:48.809Z,8.74
2019-03-12T08:28:58.976Z,8.5
2019-03-12T08:30:09.098Z,8.4
2019-03-12T08:31:19.216Z,8.16
2019-03-12T08:32:29.362Z,7.99
2019-03-12T08:33:52.880Z,8.06
2019-03-12T08:35:03.091Z,8.16
2019-03-12T08:36:13.199Z,8.34
2019-03-12T08:37:23.047Z,8.49
2019-03-12T08:38:33.164Z,8.83
2019-03-12T08:39:43.288Z,9.16
2019-03-12T08:40:57.708Z,9.4
2019-03-12T08:42:07.851Z,9.81
2019-03-12T08:43:17.957Z,10.15
2019-03-12T08:44:31.214Z,10.5
2019-03-12T08:45:51.221Z,10.85
2019-03-12T08:47:00.844Z,10.87
2019-03-12T08:48:12.761Z,10.9
2019-03-12T08:49:22.845Z,11.1
2019-03-12T08:50:32.702Z,11.09
2019-03-12T08:51:42.580Z,11.02
2019-03-12T08:52:52.689Z,11.12
2019-03-12T08:54:02.820Z,11.08
2019-03-12T08:55:12.572Z,11.21
2019-03-12T08:56:22.696Z,11.45
2019-03-12T08:57:32.828Z,11.76
2019-03-12T08:58:42.969Z,12.04
2019-03-12T08:59:53.094Z,12.15
2019-03-12T09:01:03.215Z,12.27
2019-03-12T09:02:13.353Z,12.42
2019-03-12T09:03:23.470Z,12.62
2019-03-12T09:04:33.611Z,12.9
2019-03-12T09:05:43.736Z,12.93
2019-03-12T09:06:53.865Z,13.23
2019-03-12T09:08:03.970Z,13.45
2019-03-12T09:09:14.326Z,13.56
2019-03-12T09:10:24.465Z,13.81
2019-03-12T09:11:34.580Z,14
2019-03-12T09:12:44.459Z,14.24
2019-03-12T09:13:57.354Z,14.13
2019-03-12T09:15:07.485Z,14.13
2019-03-12T09:16:17.603Z,14.4
2019-03-12T09:17:27.747Z,14.67
2019-03-12T09:18:37.857Z,14.91
2019-03-12T09:19:47.981Z,15.06
2019-03-12T09:20:58.100Z,15.27
2019-03-12T09:22:07.956Z,15.25
2019-03-12T09:23:18.061Z,15.05
2019-03-12T09:24:28.205Z,14.6
2019-03-12T09:25:38.083Z,14.44
2019-03-12T09:26:48.244Z,14.21
2019-03-12T09:27:58.416Z,14.5
2019-03-12T09:29:09.761Z,14.67
2019-03-12T09:30:21.704Z,14.83
2019-03-12T09:31:33.807Z,15.05
2019-03-12T09:33:59.650Z,14.87
2019-03-12T09:36:23.870Z,14.88
2019-03-12T09:37:33.765Z,15
2019-03-12T09:38:43.896Z,15.3
2019-03-12T09:39:54.012Z,15.43
2019-03-12T09:41:04.155Z,15.53
2019-03-12T09:42:14.287Z,15.45
2019-03-12T09:43:24.442Z,15.05
2019-03-12T09:44:34.573Z,14.81
2019-03-12T09:45:44.742Z,14.67
2019-03-12T09:46:57.448Z,14.44
2019-03-12T09:48:11.012Z,14.13
2019-03-12T09:49:21.142Z,13.91
2019-03-12T09:50:33.180Z,13.69
2019-03-12T09:51:43.312Z,13.63
2019-03-12T09:52:53.595Z,13.69
2019-03-12T09:54:04.158Z,13.44
2019-03-12T09:55:14.303Z,13.36
2019-03-12T09:56:24.437Z,13.34
2019-03-12T09:57:37.052Z,13.31
2019-03-12T10:00:14.945Z,13.01
2019-03-12T10:01:29.411Z,12.97
2019-03-12T10:02:39.553Z,12.81
2019-03-12T10:03:49.682Z,12.78
2019-03-12T10:04:59.841Z,12.89
2019-03-12T10:06:09.974Z,13.11
2019-03-12T10:07:20.134Z,12.89
2019-03-12T10:08:30.262Z,12.89
2019-03-12T10:09:40.405Z,12.75
2019-03-12T10:10:50.547Z,12.82
2019-03-12T10:12:00.591Z,13
2019-03-12T10:13:10.725Z,12.84
2019-03-12T10:14:20.895Z,12.84
2019-03-12T10:15:31.042Z,12.66
2019-03-12T10:16:40.919Z,12.35
2019-03-12T10:17:51.060Z,12.32
2019-03-12T10:19:01.171Z,12.37
2019-03-12T10:20:11.305Z,12.09
2019-03-12T10:21:21.476Z,12.17
2019-03-12T10:22:31.600Z,12.27
2019-03-12T10:23:41.771Z,12.53
2019-03-12T10:24:51.895Z,12.92
2019-03-12T10:26:02.038Z,13.19
2019-03-12T10:27:12.198Z,13.38
2019-03-12T10:28:22.307Z,13.58
2019-03-12T10:29:32.447Z,13.66
2019-03-12T10:30:42.656Z,13.61
2019-03-12T10:31:52.813Z,13.56
2019-03-12T10:33:02.930Z,13.67
2019-03-12T10:34:13.073Z,13.49
2019-03-12T10:35:34.302Z,13.38
2019-03-12T10:36:44.440Z,13.41
2019-03-12T10:37:54.568Z,13.37
2019-03-12T10:39:04.712Z,13.4
2019-03-12T10:40:14.841Z,13.08
2019-03-12T10:41:24.972Z,12.81
2019-03-12T10:42:35.196Z,12.55
2019-03-12T10:43:45.322Z,12.63
2019-03-12T10:44:55.517Z,12.78
2019-03-12T10:46:05.764Z,12.82
2019-03-12T10:47:15.733Z,12.92
2019-03-12T10:48:25.861Z,13.03
2019-03-12T10:49:42.492Z,13.12
2019-03-12T10:50:52.623Z,12.9
2019-03-12T10:52:02.750Z,12.8
2019-03-12T10:53:12.652Z,12.88
2019-03-12T10:54:22.772Z,13.21
2019-03-12T10:55:47.439Z,13.46
2019-03-12T10:56:57.623Z,13.38
2019-03-12T10:58:07.759Z,13.33
2019-03-12T10:59:17.920Z,13.3
2019-03-12T11:00:28.057Z,13.19
2019-03-12T11:01:38.228Z,13.12
2019-03-12T11:02:48.382Z,13.06
2019-03-12T11:03:58.523Z,12.92
2019-03-12T11:05:08.660Z,12.74
2019-03-12T11:06:18.819Z,12.47
2019-03-12T11:07:28.966Z,12.62
2019-03-12T11:08:39.107Z,12.53
2019-03-12T11:09:49.289Z,12.57
2019-03-12T11:10:59.512Z,12.39
2019-03-12T11:12:09.311Z,12.55
2019-03-12T11:13:20.000Z,12.66
2019-03-12T11:14:30.168Z,12.68
2019-03-12T11:15:40.284Z,12.53
2019-03-12T11:16:50.445Z,12.62
2019-03-12T11:18:00.576Z,12.63
2019-03-12T11:19:10.727Z,12.68
2019-03-12T11:20:20.873Z,12.56
2019-03-12T11:21:31.966Z,12.44
2019-03-12T11:22:42.107Z,12.35
2019-03-12T11:23:52.236Z,12.38
2019-03-12T11:25:02.356Z,12.53
2019-03-12T11:26:12.488Z,12.68
2019-03-12T11:27:22.621Z,12.78
2019-03-12T11:28:32.744Z,12.82
2019-03-12T11:29:42.865Z,12.85
2019-03-12T11:30:53.005Z,12.59
2019-03-12T11:32:03.147Z,12.45
2019-03-12T11:33:13.295Z,12.31
2019-03-12T11:34:23.101Z,12.31
2019-03-12T11:35:43.385Z,12.13
2019-03-12T11:36:53.522Z,12.34
2019-03-12T11:38:03.775Z,12.31
2019-03-12T11:39:14.065Z,12.02
2019-03-12T11:40:24.297Z,12.05
2019-03-12T11:41:39.561Z,11.94
2019-03-12T11:42:49.773Z,11.77
2019-03-12T11:44:00.313Z,11.74
2019-03-12T11:45:34.765Z,11.61
2019-03-12T11:46:50.377Z,11.49
2019-03-12T11:48:00.996Z,11.45
2019-03-12T11:49:10.974Z,11.39
2019-03-12T11:50:21.496Z,11.33
2019-03-12T11:51:31.929Z,11.13
2019-03-12T11:52:51.813Z,11.13
2019-03-12T11:54:07.454Z,11.25
2019-03-12T11:55:18.047Z,11.16
2019-03-12T11:56:27.925Z,11.21
2019-03-12T11:57:38.115Z,11.15
2019-03-12T11:58:48.334Z,11.17
2019-03-12T11:59:58.783Z,11
2019-03-12T12:01:09.850Z,10.69
2019-03-12T12:02:19.996Z,10.7
2019-03-12T12:03:30.140Z,10.58
2019-03-12T12:04:40.284Z,10.48
2019-03-12T12:05:50.450Z,10.47
2019-03-12T12:07:00.893Z,10.4
2019-03-12T12:08:12.045Z,10.4
2019-03-12T12:09:25.071Z,10.32
2019-03-12T12:10:35.557Z,10.19
2019-03-12T12:11:45.705Z,10.07
2019-03-12T12:12:55.835Z,9.8
2019-03-12T12:14:05.956Z,9.62
2019-03-12T12:15:16.088Z,9.5
2019-03-12T12:16:26.220Z,9.45
2019-03-12T12:17:36.357Z,9.38
2019-03-12T12:18:46.488Z,9.34
2019-03-12T12:19:56.632Z,9.27
2019-03-12T12:21:06.761Z,9.22
2019-03-12T12:22:16.546Z,9.08
2019-03-12T12:23:26.669Z,8.9
2019-03-12T12:24:36.596Z,8.75
2019-03-12T12:25:46.743Z,8.71
2019-03-12T12:26:56.868Z,8.58
2019-03-12T12:28:07.018Z,8.55
2019-03-12T12:29:17.157Z,8.4
2019-03-12T12:30:27.265Z,8.4
2019-03-12T12:31:37.406Z,8.42
2019-03-12T12:32:47.549Z,8.53
2019-03-12T12:33:57.685Z,8.5
2019-03-12T12:35:07.820Z,8.61
2019-03-12T12:36:17.948Z,8.61
2019-03-12T12:37:28.093Z,8.6
2019-03-12T12:38:37.982Z,8.57
2019-03-12T12:39:48.216Z,8.61
2019-03-12T12:40:58.338Z,8.74
2019-03-12T12:42:08.598Z,8.75
2019-03-12T12:43:18.475Z,8.83
2019-03-12T12:44:28.337Z,8.7
2019-03-12T12:45:38.657Z,8.8
2019-03-12T12:46:48.928Z,8.93
2019-03-12T12:47:59.049Z,8.9
2019-03-12T12:49:08.833Z,9.09
2019-03-12T12:50:19.026Z,9.11
2019-03-12T12:51:29.188Z,9.04
2019-03-12T12:52:39.322Z,9.15
2019-03-12T12:53:49.451Z,9.23
2019-03-12T12:54:59.571Z,9.33
2019-03-12T12:56:09.692Z,9.45
2019-03-12T12:57:19.806Z,9.65
2019-03-12T12:58:29.669Z,9.71
2019-03-12T12:59:39.832Z,9.75
2019-03-12T13:00:50.110Z,9.78
2019-03-12T13:02:00.248Z,9.84
2019-03-12T13:03:10.378Z,9.88
2019-03-12T13:04:20.508Z,9.83
2019-03-12T13:05:30.619Z,9.81
2019-03-12T13:06:40.420Z,9.66
2019-03-12T13:07:50.566Z,9.62
2019-03-12T13:09:00.723Z,9.56
2019-03-12T13:10:10.842Z,9.65
2019-03-12T13:11:20.968Z,9.58
2019-03-12T13:12:33.322Z,9.63
2019-03-12T13:13:43.476Z,9.6
2019-03-12T13:14:53.601Z,9.62
2019-03-12T13:16:03.715Z,9.62
2019-03-12T13:17:13.848Z,9.41
2019-03-12T13:18:23.976Z,9.34
2019-03-12T13:19:34.249Z,9.26
2019-03-12T13:20:44.522Z,9.2
2019-03-12T13:21:54.659Z,9.12
2019-03-12T13:23:04.790Z,9.15
2019-03-12T13:24:14.926Z,9.11
2019-03-12T13:25:25.208Z,9.09
2019-03-12T13:26:35.355Z,9.12
2019-03-12T13:27:47.558Z,9.17
2019-03-12T13:28:57.907Z,9.07
2019-03-12T13:30:08.069Z,9
2019-03-12T13:31:18.187Z,9
2019-03-12T13:32:28.944Z,9.01
2019-03-12T13:33:39.287Z,8.95
2019-03-12T13:34:49.432Z,8.8
2019-03-12T13:35:59.554Z,8.71
2019-03-12T13:37:09.669Z,8.74
2019-03-12T13:38:19.883Z,8.66
2019-03-12T13:39:30.426Z,8.58
2019-03-12T13:40:40.819Z,8.58
2019-03-12T13:41:51.030Z,8.68
2019-03-12T13:43:01.844Z,8.79
2019-03-12T13:44:12.347Z,8.8
2019-03-12T13:45:22.612Z,8.83
2019-03-12T13:46:32.828Z,8.8
2019-03-12T13:47:43.272Z,8.7
2019-03-12T13:48:53.790Z,8.64
2019-03-12T13:50:04.656Z,8.83
2019-03-12T13:51:14.885Z,8.79
2019-03-12T13:52:25.059Z,8.57
2019-03-12T13:53:35.271Z,8.66
2019-03-12T13:54:45.762Z,8.55
2019-03-12T13:55:56.009Z,8.52
2019-03-12T13:57:06.263Z,8.53
2019-03-12T13:58:16.381Z,8.49
2019-03-12T13:59:29.781Z,8.42
2019-03-12T14:00:39.951Z,8.43
2019-03-12T14:01:50.070Z,8.37
2019-03-12T14:03:00.251Z,8.48
2019-03-12T14:05:28.531Z,8.57
2019-03-12T14:06:40.065Z,8.53
2019-03-12T14:07:50.217Z,8.5
2019-03-12T14:10:16.628Z,8.42
2019-03-12T14:11:26.859Z,8.37
2019-03-12T14:12:36.975Z,8.31
2019-03-12T14:13:47.102Z,8.27
2019-03-12T14:14:57.232Z,8.25
2019-03-12T14:16:07.389Z,8.25
2019-03-12T14:17:17.523Z,8.31
2019-03-12T14:18:27.671Z,8.24
2019-03-12T14:19:37.856Z,8.23
2019-03-12T14:20:47.997Z,8.15
2019-03-12T14:22:00.719Z,8.12
2019-03-12T14:23:12.281Z,8.06
2019-03-12T14:24:22.433Z,8.06
2019-03-12T14:25:32.590Z,7.94
2019-03-12T14:26:42.375Z,7.82
2019-03-12T14:27:52.500Z,7.88
2019-03-12T14:29:02.612Z,7.76
2019-03-12T14:30:12.787Z,7.84
2019-03-12T14:31:22.944Z,7.73
2019-03-12T14:32:33.080Z,7.66
2019-03-12T14:33:43.253Z,7.55
2019-03-12T14:34:53.378Z,7.59
2019-03-12T14:36:03.503Z,7.7
2019-03-12T14:37:13.640Z,7.73
2019-03-12T14:39:40.198Z,7.73
2019-03-12T14:40:55.575Z,7.69
2019-03-12T14:42:12.891Z,7.7
2019-03-12T14:43:23.001Z,7.64
2019-03-12T14:44:33.156Z,7.61
2019-03-12T14:47:31.729Z,7.64
2019-03-12T14:48:44.222Z,7.58
2019-03-12T14:49:55.830Z,7.56
2019-03-12T14:51:07.565Z,7.52
2019-03-12T14:52:17.492Z,7.44
2019-03-12T14:53:27.840Z,7.49
2019-03-12T14:55:53.951Z,7.28
2019-03-12T14:58:20.275Z,7.18
2019-03-12T14:59:30.393Z,7.18
2019-03-12T15:01:56.690Z,7.22
2019-03-12T15:03:06.910Z,7.29
2019-03-12T15:04:19.895Z,7.2
2019-03-12T15:05:30.016Z,7.11
2019-03-12T15:06:40.175Z,7.22
2019-03-12T15:07:50.342Z,7.22
2019-03-12T15:09:00.464Z,7.1
2019-03-12T15:10:10.642Z,7.11
2019-03-12T15:11:20.531Z,7.11
2019-03-12T15:12:30.670Z,7.15
2019-03-12T15:13:40.823Z,7.15
2019-03-12T15:14:50.972Z,7.13
2019-03-12T15:16:01.137Z,7.14
2019-03-12T15:17:11.263Z,7.11
2019-03-12T15:18:21.410Z,7.17
2019-03-12T15:19:31.572Z,7.06
2019-03-12T15:20:41.725Z,7.21
2019-03-12T15:21:51.845Z,7.17
2019-03-12T15:23:01.961Z,7.14
2019-03-12T15:24:12.122Z,7.1
2019-03-12T15:25:22.240Z,7.11
2019-03-12T15:26:32.355Z,6.99
2019-03-12T15:27:42.486Z,6.99
2019-03-12T15:28:52.618Z,7.06
2019-03-12T15:30:02.383Z,7
2019-03-12T15:31:12.522Z,7.05
2019-03-12T15:32:22.694Z,7
2019-03-12T15:33:32.853Z,6.93
2019-03-12T15:34:43.000Z,6.92
2019-03-12T15:35:53.141Z,6.87
2019-03-12T15:37:03.284Z,6.95
2019-03-12T15:38:13.640Z,6.87
2019-03-12T15:39:23.800Z,6.97
2019-03-12T15:40:33.319Z,6.84
2019-03-12T15:41:43.509Z,6.89
2019-03-12T15:42:53.406Z,6.87
2019-03-12T15:44:03.379Z,6.87
2019-03-12T15:45:13.532Z,6.93
2019-03-12T15:46:23.798Z,6.87
2019-03-12T15:47:38.715Z,6.95
2019-03-12T15:48:49.158Z,6.79